createdAt,value
2018-12-20T00:00:24.621Z,95.70
2018-12-20T00:02:54.020Z,95.60
2018-12-20T00:05:23.295Z,95.80
2018-12-20T00:07:52.806Z,95.70
2018-12-20T00:10:22.322Z,95.80
2018-12-20T00:12:53.437Z,95.90
2018-12-20T00:15:22.672Z,95.60
2018-12-20T00:17:52.804Z,95.80
2018-12-20T00:20:23.244Z,95.70
2018-12-20T00:22:53.407Z,95.80
2018-12-20T00:25:22.830Z,96.10
2018-12-20T00:27:52.370Z,95.90
2018-12-20T00:30:21.928Z,95.70
2018-12-20T00:32:51.378Z,95.50
2018-12-20T00:35:21.241Z,95.70
2018-12-20T00:37:50.555Z,95.50
2018-12-20T00:40:19.858Z,95.70
2018-12-20T00:42:49.149Z,95.30
2018-12-20T00:45:18.702Z,95.60
2018-12-20T00:47:48.387Z,95.80
2018-12-20T00:50:18.387Z,95.60
2018-12-20T00:52:47.950Z,95.70
2018-12-20T00:55:17.642Z,95.70
2018-12-20T00:57:47.115Z,95.50
2018-12-20T01:00:18.509Z,95.50
2018-12-20T01:02:55.314Z,95.30
2018-12-20T01:05:20.334Z,95.30
2018-12-20T01:07:49.727Z,95.60
2018-12-20T01:10:19.201Z,95.60
2018-12-20T01:12:48.486Z,95.60
2018-12-20T01:15:17.983Z,95.30
2018-12-20T01:17:47.245Z,95.20
2018-12-20T01:20:17.342Z,95.20
2018-12-20T01:22:46.711Z,94.90
2018-12-20T01:25:16.534Z,94.90
2018-12-20T01:27:46.007Z,95.30
2018-12-20T01:30:15.488Z,95.30
2018-12-20T01:32:44.908Z,95.20
2018-12-20T01:35:14.443Z,95.00
2018-12-20T01:37:44.427Z,95.40
2018-12-20T01:40:13.642Z,95.40
2018-12-20T01:42:43.335Z,95.30
2018-12-20T01:45:12.810Z,95.10
2018-12-20T01:47:42.227Z,95.10
2018-12-20T01:50:11.975Z,95.10
2018-12-20T01:52:41.580Z,95.00
2018-12-20T01:55:10.967Z,95.00
2018-12-20T01:57:40.493Z,95.10
2018-12-20T02:00:10.986Z,95.00
2018-12-20T02:02:40.832Z,95.10
2018-12-20T02:05:10.740Z,94.90
2018-12-20T02:07:40.782Z,94.90
2018-12-20T02:10:10.216Z,94.90
2018-12-20T02:12:39.750Z,95.00
2018-12-20T02:15:09.221Z,95.10
2018-12-20T02:17:38.919Z,95.30
2018-12-20T02:20:08.493Z,95.40
2018-12-20T02:22:38.780Z,95.00
2018-12-20T02:25:08.460Z,95.00
2018-12-20T02:27:38.161Z,95.30
2018-12-20T02:30:09.760Z,95.30
2018-12-20T02:32:39.210Z,95.40
2018-12-20T02:35:08.620Z,94.80
2018-12-20T02:37:37.978Z,94.70
2018-12-20T02:40:07.517Z,94.80
2018-12-20T02:42:36.912Z,94.90
2018-12-20T02:45:10.746Z,95.00
2018-12-20T02:47:37.868Z,95.10
2018-12-20T02:50:07.222Z,95.00
2018-12-20T02:52:36.578Z,95.00
2018-12-20T02:55:05.881Z,95.10
2018-12-20T02:57:35.442Z,95.00
2018-12-20T03:00:05.954Z,94.90
2018-12-20T03:02:35.480Z,94.80
2018-12-20T03:05:05.005Z,95.00
2018-12-20T03:07:34.639Z,95.10
2018-12-20T03:10:04.355Z,95.10
2018-12-20T03:12:34.580Z,95.20
2018-12-20T03:15:04.320Z,95.00
2018-12-20T03:17:33.639Z,95.30
2018-12-20T03:20:03.102Z,95.10
2018-12-20T03:22:32.391Z,95.10
2018-12-20T03:25:02.349Z,95.10
2018-12-20T03:27:32.129Z,95.10
2018-12-20T03:30:01.522Z,95.20
2018-12-20T03:32:30.869Z,95.30
2018-12-20T03:35:00.560Z,95.10
2018-12-20T03:37:30.216Z,95.20
2018-12-20T03:40:00.645Z,95.10
2018-12-20T03:42:33.212Z,95.10
2018-12-20T03:45:05.100Z,94.80
2018-12-20T03:47:35.444Z,95.20
2018-12-20T03:50:05.715Z,95.30
2018-12-20T03:52:35.152Z,95.20
2018-12-20T03:55:10.857Z,95.30
2018-12-20T03:57:40.683Z,95.20
2018-12-20T04:00:10.355Z,95.10
2018-12-20T04:02:39.915Z,95.30
2018-12-20T04:05:09.738Z,95.10
2018-12-20T04:07:39.172Z,95.10
2018-12-20T04:10:08.612Z,95.00
2018-12-20T04:12:37.813Z,94.90
2018-12-20T04:15:07.157Z,95.10
2018-12-20T04:17:37.055Z,95.10
2018-12-20T04:20:06.943Z,95.20
2018-12-20T04:22:36.646Z,95.20
2018-12-20T04:25:06.219Z,95.10
2018-12-20T04:27:38.912Z,95.00
2018-12-20T04:30:08.689Z,95.30
2018-12-20T04:32:38.776Z,95.40
2018-12-20T04:35:08.120Z,95.50
2018-12-20T04:37:37.721Z,95.70
2018-12-20T04:40:07.072Z,95.50
2018-12-20T04:42:36.694Z,95.50
2018-12-20T04:45:06.321Z,95.10
2018-12-20T04:47:36.013Z,94.60
2018-12-20T04:50:05.699Z,94.60
2018-12-20T04:52:35.642Z,94.40
2018-12-20T04:55:05.899Z,94.20
2018-12-20T04:57:36.220Z,94.20
2018-12-20T05:00:06.135Z,94.20
2018-12-20T05:02:35.374Z,94.10
2018-12-20T05:05:04.907Z,93.90
2018-12-20T05:07:34.223Z,93.90
2018-12-20T05:10:03.508Z,93.90
2018-12-20T05:12:33.254Z,93.50
2018-12-20T05:15:02.966Z,93.50
2018-12-20T05:17:33.079Z,93.50
2018-12-20T05:20:02.432Z,93.50
2018-12-20T05:22:32.502Z,93.50
2018-12-20T05:25:01.799Z,93.30
2018-12-20T05:27:31.311Z,93.60
2018-12-20T05:30:01.266Z,93.40
2018-12-20T05:32:30.915Z,93.30
2018-12-20T05:35:01.119Z,93.30
2018-12-20T05:37:30.880Z,93.40
2018-12-20T05:40:00.326Z,93.50
2018-12-20T05:42:29.870Z,93.60
2018-12-20T05:44:59.249Z,93.60
2018-12-20T05:47:28.754Z,93.80
2018-12-20T05:49:58.489Z,93.90
2018-12-20T05:52:27.789Z,93.80
2018-12-20T05:54:57.516Z,93.80
2018-12-20T05:57:26.910Z,93.80
2018-12-20T05:59:56.600Z,93.80
2018-12-20T06:02:26.000Z,93.60
2018-12-20T06:04:55.498Z,93.00
2018-12-20T06:07:24.993Z,93.20
2018-12-20T06:09:54.604Z,93.20
2018-12-20T06:12:24.603Z,93.20
2018-12-20T06:14:53.966Z,93.40
2018-12-20T06:17:24.140Z,93.20
2018-12-20T06:19:53.381Z,93.00
2018-12-20T06:22:23.287Z,92.90
2018-12-20T06:24:52.589Z,93.10
2018-12-20T06:27:21.956Z,93.10
2018-12-20T06:29:51.264Z,93.00
2018-12-20T06:32:20.658Z,93.10
2018-12-20T06:34:50.294Z,93.20
2018-12-20T06:37:19.767Z,92.80
2018-12-20T06:39:49.038Z,92.90
2018-12-20T06:42:19.360Z,92.90
2018-12-20T06:44:48.810Z,92.70
2018-12-20T06:47:18.034Z,92.60
2018-12-20T06:49:47.598Z,92.60
2018-12-20T06:52:17.121Z,92.40
2018-12-20T06:54:47.179Z,92.00
2018-12-20T06:57:16.374Z,92.00
2018-12-20T06:59:46.289Z,91.90
2018-12-20T07:02:15.654Z,92.00
2018-12-20T07:04:45.028Z,92.20
2018-12-20T07:07:14.355Z,92.30
2018-12-20T07:09:43.554Z,92.30
2018-12-20T07:12:12.747Z,92.40
2018-12-20T07:14:42.285Z,92.50
2018-12-20T07:17:11.710Z,92.50
2018-12-20T07:19:40.856Z,92.50
2018-12-20T07:22:10.376Z,92.60
2018-12-20T07:24:39.632Z,92.60
2018-12-20T07:27:09.477Z,92.60
2018-12-20T07:29:39.506Z,92.50
2018-12-20T07:32:08.765Z,92.50
2018-12-20T07:34:38.151Z,92.50
2018-12-20T07:37:08.065Z,92.40
2018-12-20T07:39:40.612Z,92.20
2018-12-20T07:42:10.090Z,92.20
2018-12-20T07:44:39.668Z,92.30
2018-12-20T07:47:09.230Z,92.90
2018-12-20T07:49:38.843Z,94.50
2018-12-20T07:52:07.984Z,92.00
2018-12-20T07:54:38.130Z,91.20
2018-12-20T07:57:07.434Z,90.40
2018-12-20T07:59:36.832Z,90.40
2018-12-20T08:02:06.519Z,90.40
2018-12-20T08:04:36.178Z,90.80
2018-12-20T08:07:05.412Z,90.60
2018-12-20T08:09:35.067Z,90.80
2018-12-20T08:12:04.408Z,90.80
2018-12-20T08:14:34.075Z,91.00
2018-12-20T08:17:03.570Z,91.30
2018-12-20T08:19:36.483Z,91.00
2018-12-20T08:22:04.212Z,90.90
2018-12-20T08:24:33.445Z,90.70
2018-12-20T08:27:02.845Z,90.70
2018-12-20T08:29:33.489Z,90.80
2018-12-20T08:32:02.990Z,90.70
2018-12-20T08:34:32.501Z,90.70
2018-12-20T08:37:02.104Z,90.70
2018-12-20T08:39:31.579Z,90.40
2018-12-20T08:42:01.027Z,90.30
2018-12-20T08:49:15.406Z,86.10
2018-12-20T08:51:49.042Z,86.80
2018-12-20T08:54:16.447Z,86.60
2018-12-20T08:56:45.585Z,87.60
2018-12-20T08:59:14.901Z,87.10
2018-12-20T09:01:44.207Z,87.60
2018-12-20T09:04:13.396Z,87.90
2018-12-20T09:06:43.174Z,88.20
2018-12-20T09:09:12.572Z,88.00
2018-12-20T09:11:41.731Z,88.70
2018-12-20T09:14:11.114Z,89.30
2018-12-20T09:16:40.416Z,87.80
2018-12-20T09:19:10.924Z,88.00
2018-12-20T09:21:40.263Z,88.10
2018-12-20T09:24:09.635Z,88.00
2018-12-20T09:26:38.764Z,87.20
2018-12-20T09:29:07.908Z,87.00
2018-12-20T09:31:37.369Z,86.90
2018-12-20T09:34:07.049Z,86.70
2018-12-20T09:36:36.957Z,86.60
2018-12-20T09:39:08.961Z,85.70
2018-12-20T09:41:38.231Z,83.40
2018-12-20T09:44:07.561Z,82.50
2018-12-20T09:46:37.605Z,80.40
2018-12-20T09:49:07.103Z,80.70
2018-12-20T09:51:36.610Z,78.60
2018-12-20T09:54:06.090Z,77.00
2018-12-20T09:56:35.565Z,77.70
2018-12-20T09:59:05.213Z,74.80
2018-12-20T10:01:34.596Z,75.50
2018-12-20T10:04:04.090Z,73.70
2018-12-20T10:06:33.451Z,72.70
2018-12-20T10:09:04.417Z,73.70
2018-12-20T10:11:33.849Z,73.60
2018-12-20T10:14:03.716Z,75.20
2018-12-20T10:16:33.095Z,73.50
2018-12-20T10:19:03.485Z,72.20
2018-12-20T10:21:32.689Z,72.90
2018-12-20T10:24:01.904Z,71.80
2018-12-20T10:26:31.123Z,73.50
2018-12-20T10:29:00.229Z,71.60
2018-12-20T10:31:29.467Z,72.20
2018-12-20T10:33:59.750Z,72.40
2018-12-20T10:36:29.047Z,74.00
2018-12-20T10:38:58.496Z,74.00
2018-12-20T10:41:27.730Z,74.80
2018-12-20T10:43:57.236Z,72.10
2018-12-20T10:46:26.498Z,70.50
2018-12-20T10:48:56.034Z,67.30
2018-12-20T10:51:25.362Z,67.00
2018-12-20T10:53:56.020Z,67.90
2018-12-20T10:56:25.652Z,67.90
2018-12-20T10:58:55.182Z,65.90
2018-12-20T11:01:29.613Z,68.10
2018-12-20T11:04:04.375Z,69.70
2018-12-20T11:06:39.485Z,66.70
2018-12-20T11:10:15.903Z,63.50
2018-12-20T11:12:48.794Z,60.10
2018-12-20T11:15:18.454Z,58.80
2018-12-20T11:17:47.834Z,58.40
2018-12-20T11:20:17.414Z,56.50
2018-12-20T11:22:46.983Z,53.90
2018-12-20T11:25:16.683Z,51.50
2018-12-20T11:27:46.046Z,49.70
2018-12-20T11:30:16.092Z,51.10
2018-12-20T11:32:46.201Z,51.00
2018-12-20T11:35:15.461Z,51.40
2018-12-20T11:37:44.652Z,55.80
2018-12-20T11:40:13.785Z,56.70
2018-12-20T11:42:43.557Z,55.90
2018-12-20T11:45:13.037Z,53.10
2018-12-20T11:47:45.972Z,51.60
2018-12-20T11:50:14.067Z,49.50
2018-12-20T11:52:43.524Z,47.50
2018-12-20T11:55:12.753Z,47.90
2018-12-20T11:57:42.051Z,45.60
2018-12-20T12:00:11.897Z,44.90
2018-12-20T12:02:41.712Z,45.60
2018-12-20T12:05:10.904Z,45.20
2018-12-20T12:07:40.162Z,43.80
2018-12-20T12:10:10.310Z,43.60
2018-12-20T12:12:39.927Z,44.90
2018-12-20T12:15:09.213Z,47.90
2018-12-20T12:17:39.156Z,49.90
2018-12-20T12:20:09.593Z,52.30
2018-12-20T12:22:38.890Z,52.50
2018-12-20T12:25:08.525Z,52.70
2018-12-20T12:27:37.719Z,52.20
2018-12-20T12:30:09.602Z,53.80
2018-12-20T12:32:38.711Z,55.20
2018-12-20T12:35:08.306Z,57.30
2018-12-20T12:37:37.845Z,59.30
2018-12-20T12:40:08.181Z,59.50
2018-12-20T12:42:37.455Z,60.40
2018-12-20T12:45:06.975Z,61.50
2018-12-20T12:47:41.693Z,61.10
2018-12-20T12:50:11.515Z,61.70
2018-12-20T12:52:40.805Z,62.20
2018-12-20T12:55:10.334Z,63.10
2018-12-20T12:57:40.241Z,66.60
2018-12-20T13:00:10.027Z,65.00
2018-12-20T13:02:39.454Z,65.80
2018-12-20T13:05:08.857Z,64.20
2018-12-20T13:07:38.034Z,65.20
2018-12-20T13:10:07.510Z,65.10
2018-12-20T13:12:36.722Z,64.80
2018-12-20T13:15:07.305Z,65.80
2018-12-20T13:17:37.412Z,66.00
2018-12-20T14:35:10.577Z,99.90
2018-12-20T14:39:34.834Z,55.40
2018-12-20T14:42:12.470Z,49.10
2018-12-20T14:44:42.308Z,52.10
2018-12-20T14:47:28.428Z,58.70
2018-12-20T14:50:00.788Z,63.60
2018-12-20T14:53:09.555Z,68.70
2018-12-20T14:55:40.206Z,72.90
2018-12-20T14:58:23.332Z,75.70
2018-12-20T15:00:52.680Z,76.60
2018-12-20T15:03:24.180Z,78.20
2018-12-20T15:08:01.813Z,93.70
2018-12-20T15:10:31.307Z,91.50
2018-12-20T15:13:00.712Z,90.60
2018-12-20T15:15:29.962Z,88.80
2018-12-20T15:17:59.187Z,85.80
2018-12-20T15:20:28.682Z,82.80
2018-12-20T17:13:42.257Z,75.90
2018-12-20T17:16:09.788Z,78.00
2018-12-20T17:18:37.279Z,77.20
2018-12-20T17:21:04.930Z,77.70
2018-12-20T17:23:35.715Z,77.90
2018-12-20T17:26:02.891Z,78.10
2018-12-20T17:28:30.535Z,77.90
2018-12-20T17:30:58.077Z,78.00
2018-12-20T17:33:25.666Z,79.00
2018-12-20T17:35:53.175Z,79.00
2018-12-20T17:38:20.697Z,79.20
2018-12-20T17:40:48.330Z,79.10
2018-12-20T17:43:16.382Z,79.40
2018-12-20T17:45:43.962Z,79.90
2018-12-20T17:48:11.562Z,79.50
2018-12-20T17:50:39.659Z,79.60
2018-12-20T17:53:07.200Z,79.40
2018-12-20T17:55:34.776Z,80.10
2018-12-20T17:58:02.433Z,79.60
2018-12-20T18:00:30.053Z,80.70
2018-12-20T18:02:57.683Z,80.00
2018-12-20T18:05:25.267Z,80.20
2018-12-20T18:07:52.794Z,80.50
2018-12-20T18:10:20.542Z,80.90
2018-12-20T18:12:48.047Z,80.90
2018-12-20T18:15:16.577Z,81.50
2018-12-20T18:17:44.179Z,80.80
2018-12-20T18:20:11.733Z,81.20
2018-12-20T18:22:39.381Z,81.70
2018-12-20T18:25:06.943Z,81.10
2018-12-20T18:27:34.441Z,82.30
2018-12-20T18:30:02.020Z,82.20
2018-12-20T18:32:29.704Z,82.20
2018-12-20T18:34:57.345Z,83.00
2018-12-20T18:37:24.844Z,83.10
2018-12-20T18:39:52.407Z,83.60
2018-12-20T18:42:19.998Z,82.70
2018-12-20T18:44:47.514Z,82.90
2018-12-20T18:47:15.058Z,82.40
2018-12-20T18:49:47.462Z,83.00
2018-12-20T18:52:12.232Z,83.10
2018-12-20T18:54:39.756Z,82.90
2018-12-20T18:57:07.434Z,83.20
2018-12-20T18:59:35.056Z,83.10
2018-12-20T19:02:02.678Z,84.10
2018-12-20T19:04:31.287Z,83.10
2018-12-20T19:06:58.927Z,83.20
2018-12-20T19:09:26.594Z,83.40
2018-12-20T19:11:54.291Z,83.10
2018-12-20T19:14:21.847Z,83.40
2018-12-20T19:16:49.747Z,83.20
2018-12-20T19:19:17.229Z,83.70
2018-12-20T19:21:48.021Z,83.10
2018-12-20T19:24:15.699Z,83.40
2018-12-20T19:26:43.415Z,83.20
2018-12-20T19:29:10.904Z,83.10
2018-12-20T19:31:38.712Z,83.40
2018-12-20T19:34:06.235Z,83.20
2018-12-20T19:36:34.457Z,83.10
2018-12-20T19:39:04.084Z,83.20
2018-12-20T19:41:31.710Z,83.80
2018-12-20T19:43:59.305Z,83.20
2018-12-20T19:46:27.090Z,82.70
2018-12-20T19:48:54.633Z,83.40
2018-12-20T19:51:23.010Z,84.00
2018-12-20T19:53:50.747Z,84.30
2018-12-20T19:56:18.482Z,84.20
2018-12-20T19:58:46.070Z,84.10
2018-12-20T20:01:13.584Z,85.00
2018-12-20T20:03:41.294Z,84.80
2018-12-20T20:06:08.987Z,85.00
2018-12-20T20:08:37.895Z,84.50
2018-12-20T20:11:05.486Z,84.40
2018-12-20T20:13:33.000Z,84.20
2018-12-20T20:16:00.582Z,84.90
2018-12-20T20:18:28.284Z,84.70
2018-12-20T20:20:55.799Z,83.60
2018-12-20T20:23:23.475Z,83.60
2018-12-20T20:25:50.988Z,84.10
2018-12-20T20:28:18.730Z,83.10
2018-12-20T20:30:46.262Z,83.30
2018-12-20T20:33:13.774Z,82.70
2018-12-20T20:35:41.272Z,82.80
2018-12-20T20:38:08.877Z,83.10
2018-12-20T20:40:36.455Z,83.00
2018-12-20T20:43:04.026Z,82.90
2018-12-20T20:45:31.703Z,83.50
2018-12-20T20:47:59.335Z,83.10
2018-12-20T20:50:26.974Z,83.30
2018-12-20T20:52:54.497Z,83.00
2018-12-20T20:55:22.094Z,82.90
2018-12-20T20:57:49.732Z,83.40
2018-12-20T21:00:18.244Z,83.30
2018-12-20T21:02:45.745Z,83.10
2018-12-20T21:05:13.318Z,82.80
2018-12-20T21:07:40.976Z,82.70
2018-12-20T21:10:09.079Z,82.80
2018-12-20T21:12:37.217Z,83.10
2018-12-20T21:15:06.995Z,82.60
2018-12-20T21:17:34.703Z,82.70
2018-12-20T21:20:03.830Z,82.70
2018-12-20T21:22:31.323Z,82.60
2018-12-20T21:24:58.888Z,82.10
2018-12-20T21:27:26.574Z,82.20
2018-12-20T21:29:54.169Z,82.20
2018-12-20T21:32:21.832Z,82.30
2018-12-20T21:34:49.363Z,82.30
2018-12-20T21:37:17.121Z,82.20
2018-12-20T21:39:44.736Z,82.10
2018-12-20T21:42:12.234Z,82.00
2018-12-20T21:44:41.680Z,82.40
2018-12-20T21:47:09.350Z,82.20
2018-12-20T21:49:36.858Z,82.00
2018-12-20T21:52:04.471Z,82.20
2018-12-20T21:54:31.966Z,82.30
2018-12-20T21:56:59.636Z,82.30
2018-12-20T21:59:27.164Z,82.40
2018-12-20T22:01:54.674Z,82.30
2018-12-20T22:04:22.379Z,82.40
2018-12-20T22:06:50.051Z,82.70
2018-12-20T22:09:17.622Z,82.70
2018-12-20T22:11:45.250Z,82.10
2018-12-20T22:14:12.817Z,83.20
2018-12-20T22:16:40.591Z,83.10
2018-12-20T22:19:08.102Z,83.20
2018-12-20T22:21:35.676Z,83.20
2018-12-20T22:24:03.529Z,83.20
2018-12-20T22:26:31.227Z,83.30
2018-12-20T22:29:00.054Z,83.40
2018-12-20T22:31:27.641Z,82.90
2018-12-20T22:33:55.155Z,83.20
2018-12-20T22:36:23.019Z,83.00
2018-12-20T22:38:51.117Z,83.90
2018-12-20T22:41:19.702Z,83.30
2018-12-20T22:43:47.277Z,83.30
2018-12-20T22:46:14.973Z,83.50
2018-12-20T22:48:42.512Z,83.40
2018-12-20T22:51:10.055Z,83.30
2018-12-20T22:53:37.688Z,83.30
2018-12-20T22:56:05.330Z,83.40
2018-12-20T22:58:32.849Z,83.20
2018-12-20T23:01:00.766Z,83.50
2018-12-20T23:03:28.302Z,83.10
2018-12-20T23:05:55.795Z,83.50
2018-12-20T23:08:23.444Z,82.80
2018-12-20T23:10:50.966Z,82.90
2018-12-20T23:13:18.513Z,83.00
2018-12-20T23:15:46.152Z,82.70
2018-12-20T23:18:13.685Z,82.70
2018-12-20T23:20:41.201Z,82.90
2018-12-20T23:23:08.734Z,82.80
2018-12-20T23:25:36.285Z,82.50
2018-12-20T23:28:03.849Z,82.30
2018-12-20T23:30:31.635Z,82.60
2018-12-20T23:32:59.218Z,82.60
2018-12-20T23:35:26.724Z,82.30
2018-12-20T23:37:54.281Z,82.50
2018-12-20T23:40:21.881Z,82.60
2018-12-20T23:42:49.569Z,82.90
2018-12-20T23:45:17.047Z,82.80
2018-12-20T23:47:44.678Z,82.60
2018-12-20T23:50:12.325Z,82.60
2018-12-20T23:52:39.926Z,82.50
2018-12-20T23:55:07.550Z,82.80
2018-12-20T23:57:35.130Z,82.40
